Time;durP1;ratioP1;P1;durP2;ratioP2;P2;SDS_P1;SDS_P2;PMS_P1;PMS_P2;Temp;Humidity;BMP_temperature;BMP_pressure;BME280_temperature;BME280_humidity;BME280_pressure;Samples;Min_cycle;Max_cycle;Signal;HPM_P1;HPM_P2
2024/02/03 00:00:45;;;;;;;3.88;1.58;;;-2.70;93.60;;;;;;5069394;28;20048;-87
2024/02/03 00:03:11;;;;;;;2.70;1.05;;;-2.80;93.70;;;;;;5070074;28;20028;-83
2024/02/03 00:05:37;;;;;;;1.30;1.05;;;-2.80;93.80;;;;;;5072028;28;20099;-82
2024/02/03 00:08:03;;;;;;;5.53;1.63;;;-2.80;93.80;;;;;;5078861;28;20045;-82
2024/02/03 00:10:29;;;;;;;5.03;1.52;;;-2.90;93.80;;;;;;5064527;28;20023;-83
2024/02/03 00:12:55;;;;;;;2.47;1.17;;;-2.90;93.80;;;;;;5073772;28;20393;-82
2024/02/03 00:15:21;;;;;;;5.53;1.60;;;-2.90;93.80;;;;;;5075718;28;20062;-82
2024/02/03 00:17:47;;;;;;;2.10;1.08;;;-2.90;93.80;;;;;;5075463;28;20103;-82
2024/02/03 00:20:14;;;;;;;3.75;1.48;;;-3.00;93.90;;;;;;5080083;28;20044;-83
2024/02/03 00:22:40;;;;;;;6.43;1.17;;;-3.00;93.90;;;;;;5082010;28;20021;-81
2024/02/03 00:25:07;;;;;;;3.00;1.20;;;-3.10;94.00;;;;;;5074487;28;20330;-82
2024/02/03 00:27:33;;;;;;;3.90;1.20;;;-3.00;94.10;;;;;;5072040;28;20097;-82
2024/02/03 00:29:58;;;;;;;4.40;1.48;;;-3.10;94.10;;;;;;5069707;28;20277;-81
2024/02/03 00:32:24;;;;;;;4.95;1.60;;;-3.10;94.10;;;;;;5073302;28;20024;-81
2024/02/03 00:34:50;;;;;;;3.83;1.42;;;-3.20;94.20;;;;;;5072701;28;20033;-82
2024/02/03 00:37:16;;;;;;;3.42;1.10;;;-3.20;94.20;;;;;;5071991;28;20028;-81
2024/02/03 00:39:42;;;;;;;4.18;1.45;;;-3.20;94.30;;;;;;5072366;28;20039;-81
2024/02/03 00:42:08;;;;;;;3.00;1.30;;;-3.20;94.40;;;;;;5071497;28;20036;-81
2024/02/03 00:44:34;;;;;;;3.35;1.00;;;-3.30;94.40;;;;;;5066581;28;20021;-80
2024/02/03 00:47:00;;;;;;;2.58;1.10;;;-3.30;94.40;;;;;;5061816;28;20031;-80
2024/02/03 00:49:26;;;;;;;5.32;1.30;;;-3.30;94.50;;;;;;5076258;28;20104;-83
2024/02/03 00:51:51;;;;;;;2.70;1.30;;;-3.40;94.50;;;;;;5070764;28;20409;-81
2024/02/03 00:54:17;;;;;;;3.60;1.27;;;-3.40;94.60;;;;;;5079196;28;20033;-79
2024/02/03 00:56:43;;;;;;;2.47;1.13;;;-3.40;94.70;;;;;;5070135;28;20053;-80
2024/02/03 00:59:10;;;;;;;3.45;0.95;;;-3.40;94.70;;;;;;5077796;28;20025;-81
2024/02/03 01:01:36;;;;;;;2.60;1.17;;;-3.50;94.70;;;;;;5065027;28;20028;-80
2024/02/03 01:04:02;;;;;;;5.32;1.45;;;-3.50;94.80;;;;;;5076451;28;20060;-81
2024/02/03 01:06:27;;;;;;;3.75;1.20;;;-3.50;94.90;;;;;;5078668;28;20044;-80
2024/02/03 01:08:53;;;;;;;3.83;1.20;;;-3.60;95.00;;;;;;5073945;28;20090;-79
2024/02/03 01:11:19;;;;;;;7.97;1.52;;;-3.60;95.10;;;;;;5074646;28;20020;-82
2024/02/03 01:13:45;;;;;;;1.63;1.15;;;-3.60;95.10;;;;;;5079075;28;20033;-79
2024/02/03 01:16:11;;;;;;;3.13;1.50;;;-3.60;95.10;;;;;;5074102;28;20013;-82
2024/02/03 01:18:37;;;;;;;5.68;1.40;;;-3.60;95.10;;;;;;5072554;28;20442;-80
2024/02/03 01:21:03;;;;;;;3.15;1.38;;;-3.60;95.20;;;;;;5071774;28;20048;-78
2024/02/03 01:23:29;;;;;;;2.75;1.25;;;-3.70;95.30;;;;;;5071348;28;20047;-81
2024/02/03 01:25:55;;;;;;;3.53;1.20;;;-3.70;95.30;;;;;;5071862;28;20020;-81
2024/02/03 01:28:21;;;;;;;3.58;1.00;;;-3.80;95.30;;;;;;5071834;28;20038;-80
2024/02/03 01:30:46;;;;;;;4.65;1.65;;;-3.80;95.40;;;;;;5072132;28;20028;-80
2024/02/03 01:33:12;;;;;;;3.90;1.98;;;-3.80;95.50;;;;;;5072055;28;20036;-81
2024/02/03 01:35:38;;;;;;;5.07;1.52;;;-3.80;95.50;;;;;;5070189;28;20118;-80
2024/02/03 01:38:04;;;;;;;3.97;1.20;;;-3.80;95.60;;;;;;5070323;28;20017;-79
2024/02/03 01:40:30;;;;;;;2.88;1.40;;;-3.80;95.70;;;;;;5067516;28;20036;-80
2024/02/03 01:43:02;;;;;;;4.63;1.33;;;-3.90;95.70;;;;;;5071449;28;20024;-81
2024/02/03 01:45:28;;;;;;;3.67;1.67;;;-3.90;95.90;;;;;;5072421;28;20073;-81
2024/02/03 01:47:55;;;;;;;5.07;2.85;;;-3.90;95.90;;;;;;5066923;28;20033;-79
2024/02/03 01:50:22;;;;;;;2.17;1.20;;;-3.90;96.00;;;;;;5071942;28;20013;-79
2024/02/03 01:52:50;;;;;;;4.13;1.42;;;-3.90;96.10;;;;;;5058918;28;20330;-81
2024/02/03 01:55:19;;;;;;;2.70;1.10;;;-3.90;96.10;;;;;;5070257;28;20440;-79
2024/02/03 01:57:45;;;;;;;6.38;1.80;;;-4.00;96.20;;;;;;5070402;28;20013;-80
2024/02/03 02:00:12;;;;;;;3.17;1.15;;;-4.10;96.30;;;;;;5071193;28;20393;-80
2024/02/03 02:02:38;;;;;;;3.83;1.60;;;-4.00;96.40;;;;;;5071438;28;20039;-80
2024/02/03 02:05:04;;;;;;;5.00;1.35;;;-4.00;96.40;;;;;;5070010;28;20033;-78
2024/02/03 02:07:30;;;;;;;6.68;1.30;;;-4.00;96.50;;;;;;5072149;28;20393;-78
2024/02/03 02:09:56;;;;;;;4.65;1.20;;;-4.10;96.60;;;;;;5069538;28;20108;-80
2024/02/03 02:12:22;;;;;;;4.25;1.42;;;-4.10;96.60;;;;;;5069767;28;20120;-79
2024/02/03 02:14:48;;;;;;;3.08;1.35;;;-4.10;96.70;;;;;;5070940;28;20082;-79
2024/02/03 02:17:14;;;;;;;5.70;1.65;;;-4.10;96.70;;;;;;5069974;28;20013;-80
2024/02/03 02:19:40;;;;;;;1.90;0.93;;;-4.10;96.80;;;;;;5073206;28;20083;-79
2024/02/03 02:22:05;;;;;;;3.97;1.40;;;-4.10;96.80;;;;;;5074792;28;20029;-79
2024/02/03 02:24:31;;;;;;;9.32;1.70;;;-4.20;96.90;;;;;;5071259;28;20051;-81
2024/02/03 02:26:57;;;;;;;3.40;1.55;;;-4.20;96.90;;;;;;5075060;28;20060;-78
2024/02/03 02:29:23;;;;;;;4.72;1.27;;;-4.30;96.90;;;;;;5074186;28;20539;-79
2024/02/03 02:31:49;;;;;;;4.40;1.40;;;-4.30;97.00;;;;;;5074706;28;20031;-79
2024/02/03 02:34:14;;;;;;;6.43;1.30;;;-4.30;97.10;;;;;;5074685;28;20029;-79
2024/02/03 02:36:40;;;;;;;4.72;1.30;;;-4.30;97.20;;;;;;5078813;28;20024;-77
2024/02/03 02:39:06;;;;;;;3.97;1.27;;;-4.30;97.20;;;;;;5075805;28;20027;-79
2024/02/03 02:41:32;;;;;;;6.35;1.25;;;-4.30;97.30;;;;;;5071633;28;20103;-80
2024/02/03 02:43:58;;;;;;;1.98;1.10;;;-4.30;97.30;;;;;;5077513;28;20039;-80
2024/02/03 02:46:27;;;;;;;5.45;1.95;;;-4.40;97.30;;;;;;5077969;28;20020;-80
2024/02/03 02:48:53;;;;;;;3.38;1.17;;;-4.40;97.40;;;;;;5074071;28;20035;-78
2024/02/03 02:51:19;;;;;;;2.70;1.37;;;-4.40;97.50;;;;;;5074093;28;20025;-77
2024/02/03 02:53:45;;;;;;;4.60;1.73;;;-4.40;97.50;;;;;;5074511;28;20331;-78
2024/02/03 02:56:12;;;;;;;2.58;1.42;;;-4.40;97.60;;;;;;5074075;28;20493;-79
2024/02/03 02:58:38;;;;;;;5.10;1.73;;;-4.40;97.60;;;;;;5073852;28;20020;-79
2024/02/03 03:01:04;;;;;;;2.28;1.25;;;-4.40;97.70;;;;;;5074947;28;20504;-78
2024/02/03 03:03:30;;;;;;;5.13;1.52;;;-4.40;97.70;;;;;;5077213;28;20099;-79
2024/02/03 03:05:58;;;;;;;4.80;1.27;;;-4.50;97.70;;;;;;5076416;28;20058;-78
2024/02/03 03:08:24;;;;;;;4.13;2.65;;;-4.50;97.80;;;;;;5073630;28;20501;-77
2024/02/03 03:10:50;;;;;;;1.70;1.40;;;-4.50;97.90;;;;;;5073460;28;20082;-75
2024/02/03 03:13:15;;;;;;;7.22;1.55;;;-4.50;97.90;;;;;;5072431;28;20049;-77
2024/02/03 03:15:41;;;;;;;3.67;1.40;;;-4.50;98.00;;;;;;5073863;28;20115;-78
2024/02/03 03:18:07;;;;;;;2.28;1.50;;;-4.50;98.00;;;;;;5072302;28;20021;-76
2024/02/03 03:20:33;;;;;;;6.05;1.25;;;-4.50;98.10;;;;;;5063880;28;20021;-77
2024/02/03 03:22:58;;;;;;;4.47;1.13;;;-4.50;98.10;;;;;;5062040;28;20036;-78
2024/02/03 03:25:25;;;;;;;1.85;0.93;;;-4.60;98.20;;;;;;5067789;28;20028;-77
2024/02/03 03:27:51;;;;;;;9.18;1.45;;;-4.50;98.30;;;;;;5069305;28;20032;-78
2024/02/03 03:30:16;;;;;;;3.92;1.30;;;-4.50;98.40;;;;;;5064183;28;20029;-78
2024/02/03 03:32:42;;;;;;;4.88;2.15;;;-4.50;98.40;;;;;;5070029;28;20024;-77
2024/02/03 03:35:08;;;;;;;4.63;1.30;;;-4.50;98.50;;;;;;5054447;28;20036;-77
2024/02/03 03:37:34;;;;;;;3.00;1.50;;;-4.40;98.60;;;;;;5057762;28;20024;-78
2024/02/03 03:40:00;;;;;;;3.90;1.67;;;-4.50;98.50;;;;;;5070478;28;20103;-78
2024/02/03 03:42:25;;;;;;;3.80;1.58;;;-4.40;98.60;;;;;;5071239;28;20044;-79
2024/02/03 03:44:51;;;;;;;3.53;1.45;;;-4.40;98.60;;;;;;5071868;28;20047;-79
2024/02/03 03:47:17;;;;;;;2.67;1.40;;;-4.40;98.60;;;;;;5070324;28;20021;-79
2024/02/03 03:49:43;;;;;;;5.38;1.10;;;-4.50;98.60;;;;;;5069347;28;20032;-79
2024/02/03 03:52:09;;;;;;;3.75;1.40;;;-4.50;98.60;;;;;;5073773;28;20456;-79
2024/02/03 03:54:35;;;;;;;3.88;1.08;;;-4.50;98.70;;;;;;5064642;28;20037;-77
2024/02/03 03:57:00;;;;;;;5.32;1.50;;;-4.60;98.70;;;;;;5073074;28;20016;-78
2024/02/03 03:59:27;;;;;;;3.35;1.55;;;-4.60;98.80;;;;;;5072865;28;20070;-80
2024/02/03 04:01:53;;;;;;;5.47;3.50;;;-4.60;98.90;;;;;;5073162;28;20473;-78
2024/02/03 04:04:19;;;;;;;6.72;1.48;;;-4.70;98.90;;;;;;5072002;28;20262;-78
2024/02/03 04:06:45;;;;;;;4.70;2.38;;;-4.60;99.10;;;;;;5065057;28;20030;-80
2024/02/03 04:09:13;;;;;;;4.10;1.83;;;-4.60;99.20;;;;;;5078658;28;20486;-79
2024/02/03 04:11:39;;;;;;;3.72;1.63;;;-4.60;99.20;;;;;;5069954;28;20385;-78
2024/02/03 04:14:06;;;;;;;2.85;1.52;;;-4.60;99.20;;;;;;5072637;28;20039;-78
2024/02/03 04:16:31;;;;;;;6.82;2.20;;;-4.50;99.40;;;;;;5074055;28;20025;-77
2024/02/03 04:18:57;;;;;;;5.63;3.55;;;-4.60;99.30;;;;;;5075144;28;20155;-78
2024/02/03 04:21:29;;;;;;;4.47;1.70;;;-4.60;99.20;;;;;;5073343;28;20370;-77
2024/02/03 04:23:55;;;;;;;5.20;2.10;;;-4.60;99.40;;;;;;5071520;28;20024;-78
2024/02/03 04:26:21;;;;;;;4.30;1.80;;;-4.60;99.40;;;;;;5063290;28;20021;-78
2024/02/03 04:28:47;;;;;;;5.65;1.65;;;-4.60;99.40;;;;;;5065476;28;20043;-80
2024/02/03 04:31:12;;;;;;;3.75;1.90;;;-4.60;99.50;;;;;;5072630;28;20481;-80
2024/02/03 04:33:38;;;;;;;6.30;1.83;;;-4.70;99.60;;;;;;5072169;28;20020;-77
2024/02/03 04:36:05;;;;;;;5.43;1.40;;;-4.60;99.80;;;;;;5070074;28;20036;-78
2024/02/03 04:38:31;;;;;;;3.92;1.67;;;-4.60;99.90;;;;;;5072093;28;20020;-78
2024/02/03 04:40:57;;;;;;;2.63;1.60;;;-4.60;99.90;;;;;;5071746;28;20024;-78
2024/02/03 04:43:22;;;;;;;6.40;1.27;;;-4.60;99.90;;;;;;5059590;28;20099;-79
2024/02/03 04:45:48;;;;;;;5.65;2.03;;;-4.50;99.90;;;;;;5068086;28;20039;-78
2024/02/03 04:48:15;;;;;;;9.10;2.55;;;-4.50;99.90;;;;;;5072053;28;20017;-79
2024/02/03 04:50:41;;;;;;;3.63;2.03;;;-4.50;99.90;;;;;;5071969;28;20025;-78
2024/02/03 04:53:07;;;;;;;8.18;2.90;;;-4.50;99.90;;;;;;5072253;28;20107;-78
2024/02/03 04:55:33;;;;;;;4.28;2.13;;;-4.40;99.90;;;;;;5064599;28;20040;-79
2024/02/03 04:57:59;;;;;;;3.70;1.77;;;-4.30;99.90;;;;;;5071775;28;20085;-79
2024/02/03 05:00:25;;;;;;;5.30;1.92;;;-4.30;99.90;;;;;;5071084;28;20042;-77
2024/02/03 05:02:51;;;;;;;4.40;2.85;;;-4.20;99.90;;;;;;5072224;28;20114;-78
2024/02/03 05:05:16;;;;;;;3.85;2.53;;;-4.20;99.90;;;;;;5071701;28;20028;-78
2024/02/03 05:07:49;;;;;;;4.68;2.55;;;-4.30;99.90;;;;;;5066068;28;20036;-78
2024/02/03 05:10:15;;;;;;;5.60;2.33;;;-4.30;99.90;;;;;;5070485;28;20142;-78
2024/02/03 05:12:41;;;;;;;5.00;2.50;;;-4.30;99.90;;;;;;5071645;28;20028;-79
2024/02/03 05:15:07;;;;;;;8.15;2.67;;;-4.30;99.90;;;;;;5071548;28;20028;-78
2024/02/03 05:17:33;;;;;;;11.35;3.75;;;-4.20;99.90;;;;;;5070517;28;20017;-78
2024/02/03 05:19:59;;;;;;;11.00;2.47;;;-4.20;99.90;;;;;;5072726;28;20035;-78
2024/02/03 05:22:24;;;;;;;10.93;3.72;;;-4.20;99.90;;;;;;5071473;28;20016;-80
2024/02/03 05:24:50;;;;;;;8.60;4.18;;;-4.30;99.90;;;;;;5069880;28;20481;-77
2024/02/03 05:27:16;;;;;;;6.25;4.10;;;-4.30;99.90;;;;;;5071285;28;20032;-77
2024/02/03 05:29:42;;;;;;;7.70;3.20;;;-4.20;99.90;;;;;;5072082;28;20385;-77
2024/02/03 05:32:08;;;;;;;3.60;2.60;;;-4.30;99.90;;;;;;5068469;28;20029;-82
2024/02/03 05:34:34;;;;;;;7.25;3.35;;;-4.30;99.90;;;;;;5071493;28;20362;-79
2024/02/03 05:36:59;;;;;;;3.20;2.67;;;-4.30;99.90;;;;;;5074915;28;20454;-79
2024/02/03 05:39:25;;;;;;;7.95;3.95;;;-4.30;99.90;;;;;;5072567;28;20027;-79
2024/02/03 05:41:51;;;;;;;5.30;2.58;;;-4.40;99.90;;;;;;5070320;28;20121;-80
2024/02/03 05:44:18;;;;;;;5.72;2.72;;;-4.40;99.90;;;;;;5071767;28;20020;-79
2024/02/03 05:46:43;;;;;;;8.27;3.47;;;-4.40;99.90;;;;;;5072753;28;20009;-81
2024/02/03 05:49:09;;;;;;;4.53;2.90;;;-4.40;99.90;;;;;;5074280;28;20827;-81
2024/02/03 05:51:35;;;;;;;7.15;3.13;;;-4.40;99.90;;;;;;5072852;28;20488;-81
2024/02/03 05:54:01;;;;;;;4.60;2.67;;;-4.40;99.90;;;;;;5074321;28;20147;-81
2024/02/03 05:56:29;;;;;;;6.78;3.10;;;-4.40;99.90;;;;;;5073208;28;20028;-81
2024/02/03 05:58:55;;;;;;;8.35;2.97;;;-4.40;99.90;;;;;;5075568;28;20025;-81
2024/02/03 06:01:21;;;;;;;11.20;3.78;;;-4.30;99.90;;;;;;5079790;28;20062;-80
2024/02/03 06:03:47;;;;;;;5.57;2.80;;;-4.20;99.90;;;;;;5076976;28;20017;-82
2024/02/03 06:06:13;;;;;;;6.00;2.42;;;-4.30;99.90;;;;;;5070442;28;20020;-80
2024/02/03 06:08:40;;;;;;;5.32;2.63;;;-4.20;99.90;;;;;;5069291;28;20037;-79
2024/02/03 06:11:06;;;;;;;5.30;2.58;;;-4.20;99.90;;;;;;5066804;28;20044;-80
2024/02/03 06:13:32;;;;;;;5.32;2.45;;;-4.20;99.90;;;;;;5074654;28;20029;-80
2024/02/03 06:15:57;;;;;;;5.53;2.65;;;-4.20;99.90;;;;;;5075554;28;20025;-81
2024/02/03 06:18:23;;;;;;;8.90;3.75;;;-4.10;99.90;;;;;;5082059;28;20055;-80
2024/02/03 06:20:49;;;;;;;7.15;3.97;;;-4.10;99.90;;;;;;5075572;28;20016;-80
2024/02/03 06:23:15;;;;;;;6.90;3.17;;;-4.00;99.90;;;;;;5075283;28;20020;-80
2024/02/03 06:25:40;;;;;;;6.95;2.80;;;-3.90;99.90;;;;;;5073829;28;20025;-80
2024/02/03 06:28:07;;;;;;;7.32;2.72;;;-3.80;99.90;;;;;;5068234;28;20029;-80
2024/02/03 06:30:33;;;;;;;9.00;3.60;;;-3.70;99.90;;;;;;5069750;28;20019;-80
2024/02/03 06:32:59;;;;;;;6.03;2.17;;;-3.70;99.90;;;;;;5073774;28;20040;-80
2024/02/03 06:35:25;;;;;;;4.78;3.13;;;-3.60;99.90;;;;;;5074749;28;20029;-80
2024/02/03 06:37:51;;;;;;;5.28;2.83;;;-3.60;99.90;;;;;;5073516;28;20039;-79
2024/02/03 06:40:17;;;;;;;5.78;2.53;;;-3.60;99.90;;;;;;5073499;28;20028;-83
2024/02/03 06:42:43;;;;;;;5.40;3.08;;;-3.60;99.90;;;;;;5070009;28;20020;-81
2024/02/03 06:45:09;;;;;;;3.80;2.38;;;-3.50;99.90;;;;;;5065414;28;20022;-80
2024/02/03 06:47:35;;;;;;;5.50;3.33;;;-3.40;99.90;;;;;;5069803;28;20017;-80
2024/02/03 06:50:01;;;;;;;5.68;2.08;;;-3.30;99.90;;;;;;5077491;28;20043;-80
2024/02/03 06:52:27;;;;;;;10.13;2.80;;;-3.20;99.90;;;;;;5074979;28;20082;-81
2024/02/03 06:54:53;;;;;;;3.65;2.05;;;-3.20;99.90;;;;;;5074452;28;20033;-80
2024/02/03 06:57:19;;;;;;;6.03;2.35;;;-3.40;99.90;;;;;;5073067;28;20029;-80
2024/02/03 06:59:45;;;;;;;3.95;2.25;;;-3.40;99.90;;;;;;5074080;28;20021;-81
2024/02/03 07:02:11;;;;;;;6.00;2.50;;;-3.40;99.90;;;;;;5064732;28;20035;-80
2024/02/03 07:04:36;;;;;;;9.63;3.53;;;-3.30;99.90;;;;;;5065284;28;20099;-81
2024/02/03 07:07:03;;;;;;;6.60;3.95;;;-3.20;99.90;;;;;;5070594;28;20082;-81
2024/02/03 07:09:29;;;;;;;4.73;2.57;;;-3.10;99.90;;;;;;5081072;28;20051;-82
2024/02/03 07:11:55;;;;;;;6.72;3.72;;;-3.10;99.90;;;;;;5074289;28;20024;-81
2024/02/03 07:14:20;;;;;;;9.13;3.78;;;-3.00;99.90;;;;;;5064976;28;20529;-80
2024/02/03 07:16:46;;;;;;;7.20;4.00;;;-2.90;99.90;;;;;;5077722;28;20025;-79
2024/02/03 07:19:12;;;;;;;11.38;4.43;;;-2.80;99.90;;;;;;5077694;28;20105;-80
2024/02/03 07:21:38;;;;;;;5.32;3.28;;;-2.80;99.90;;;;;;5081591;28;20099;-82
2024/02/03 07:24:04;;;;;;;10.02;4.13;;;-2.70;99.90;;;;;;5081213;28;20545;-79
2024/02/03 07:26:30;;;;;;;5.50;3.05;;;-2.70;99.90;;;;;;5073894;28;20033;-80
2024/02/03 07:28:55;;;;;;;5.40;3.40;;;-2.60;99.90;;;;;;5073663;28;20059;-81
2024/02/03 07:31:26;;;;;;;5.97;2.97;;;-2.50;99.80;;;;;;5072507;28;20551;-82
2024/02/03 07:33:52;;;;;;;4.80;2.92;;;-2.40;99.70;;;;;;5073817;28;20439;-81
2024/02/03 07:36:18;;;;;;;5.90;3.30;;;-2.30;99.50;;;;;;5072045;28;20025;-81
2024/02/03 07:38:44;;;;;;;6.20;2.50;;;-2.30;99.40;;;;;;5070979;28;20079;-81
2024/02/03 07:41:09;;;;;;;4.68;3.13;;;-2.30;99.10;;;;;;5074343;28;20512;-80
2024/02/03 07:43:35;;;;;;;5.82;2.50;;;-2.30;99.10;;;;;;5069799;28;20462;-82
2024/02/03 07:46:01;;;;;;;4.03;2.05;;;-2.30;98.70;;;;;;5069596;28;20485;-82
2024/02/03 07:48:27;;;;;;;5.57;2.75;;;-2.30;98.60;;;;;;5074286;28;20047;-81
2024/02/03 07:50:53;;;;;;;4.60;2.58;;;-2.40;98.50;;;;;;5067365;28;20052;-81
2024/02/03 07:53:18;;;;;;;9.77;2.55;;;-2.30;98.40;;;;;;5075482;28;20119;-81
2024/02/03 07:55:44;;;;;;;3.20;2.50;;;-2.30;98.40;;;;;;5071438;28;20048;-82
2024/02/03 07:58:10;;;;;;;5.80;3.05;;;-2.30;98.20;;;;;;5068548;28;20029;-81
2024/02/03 08:00:37;;;;;;;3.90;2.42;;;-2.30;98.40;;;;;;5074752;28;20024;-82
2024/02/03 08:03:03;;;;;;;5.13;2.22;;;-2.20;98.60;;;;;;5073927;28;20025;-82
2024/02/03 08:05:29;;;;;;;5.70;2.60;;;-2.10;98.60;;;;;;5072677;28;20020;-82
2024/02/03 08:07:55;;;;;;;5.25;2.83;;;-1.90;98.40;;;;;;5065035;28;20044;-81
2024/02/03 08:10:22;;;;;;;4.57;2.10;;;-1.90;98.00;;;;;;5073009;28;20027;-81
2024/02/03 08:12:50;;;;;;;3.92;2.03;;;-2.00;97.60;;;;;;5071039;28;20032;-80
2024/02/03 08:15:15;;;;;;;3.35;2.28;;;-2.10;97.50;;;;;;5069401;28;20036;-80
2024/02/03 08:17:42;;;;;;;7.55;2.80;;;-2.10;97.70;;;;;;5063143;28;20033;-81
2024/02/03 08:20:09;;;;;;;10.27;3.13;;;-2.00;97.80;;;;;;5067731;28;20028;-84
2024/02/03 08:22:35;;;;;;;8.27;2.72;;;-1.90;97.60;;;;;;5070591;28;20300;-83
2024/02/03 08:25:01;;;;;;;7.28;2.60;;;-1.80;97.70;;;;;;5057930;28;20029;-82
2024/02/03 08:27:27;;;;;;;7.18;2.80;;;-1.60;97.70;;;;;;5064387;28;20024;-82
2024/02/03 08:29:52;;;;;;;5.07;2.38;;;-1.50;97.60;;;;;;5073157;28;20032;-81
2024/02/03 08:32:18;;;;;;;4.78;2.85;;;-1.40;97.10;;;;;;5071630;28;20066;-81
2024/02/03 08:34:44;;;;;;;5.70;2.75;;;-1.30;97.10;;;;;;5066309;28;20029;-80
2024/02/03 08:37:10;;;;;;;5.18;2.58;;;-1.30;96.60;;;;;;5071444;28;20043;-79
2024/02/03 08:39:36;;;;;;;3.63;2.22;;;-1.40;96.60;;;;;;5071834;28;20103;-80
2024/02/03 08:42:01;;;;;;;5.55;2.22;;;-1.40;96.40;;;;;;5063871;28;20028;-79
2024/02/03 08:44:27;;;;;;;6.47;2.85;;;-1.40;96.50;;;;;;5068240;28;21466;-79
2024/02/03 08:46:53;;;;;;;7.63;2.85;;;-1.30;96.60;;;;;;5065116;28;20020;-81
2024/02/03 08:49:19;;;;;;;10.73;2.60;;;-1.10;96.70;;;;;;5075732;28;20021;-80
2024/02/03 08:51:45;;;;;;;7.38;2.85;;;-0.90;96.60;;;;;;5071674;28;20017;-80
2024/02/03 08:54:10;;;;;;;5.97;3.15;;;-0.80;96.30;;;;;;5072880;28;20032;-82
2024/02/03 08:56:36;;;;;;;7.97;3.17;;;-0.70;96.10;;;;;;5076114;28;20090;-81
2024/02/03 08:59:02;;;;;;;4.45;3.60;;;-0.60;96.00;;;;;;5071801;28;20495;-80
2024/02/03 09:01:28;;;;;;;6.22;3.63;;;-0.50;95.90;;;;;;5070643;28;20078;-82
2024/02/03 09:03:54;;;;;;;7.55;3.13;;;-0.30;95.70;;;;;;5067129;28;20025;-80
2024/02/03 09:06:20;;;;;;;9.70;2.80;;;-0.30;95.50;;;;;;5063010;28;20024;-82
2024/02/03 09:08:47;;;;;;;3.58;2.22;;;-0.30;95.20;;;;;;5072118;28;20143;-79
2024/02/03 09:11:13;;;;;;;3.85;2.58;;;-0.30;95.30;;;;;;5065885;28;20021;-81
2024/02/03 09:13:38;;;;;;;6.63;3.33;;;0.00;95.50;;;;;;5072298;28;20339;-87
2024/02/03 09:16:05;;;;;;;5.18;2.30;;;0.20;95.50;;;;;;5067790;28;20099;-83
2024/02/03 09:18:30;;;;;;;4.07;3.08;;;0.40;95.20;;;;;;5070024;28;20393;-82
2024/02/03 09:20:56;;;;;;;6.20;2.50;;;0.40;94.30;;;;;;5072595;28;20112;-84
2024/02/03 09:23:22;;;;;;;7.45;2.47;;;0.30;94.40;;;;;;5076417;28;20048;-84
2024/02/03 09:25:48;;;;;;;12.77;3.10;;;0.50;94.50;;;;;;5082564;28;20020;-78
2024/02/03 09:28:14;;;;;;;5.00;2.63;;;0.70;94.20;;;;;;5067062;28;20071;-85
2024/02/03 09:30:40;;;;;;;5.15;2.33;;;0.80;94.00;;;;;;5066478;28;20049;-84
2024/02/03 09:33:06;;;;;;;5.25;2.40;;;0.90;93.70;;;;;;5075591;28;20049;-84
2024/02/03 09:35:31;;;;;;;8.00;3.60;;;1.20;93.70;;;;;;5065216;28;20091;-82
2024/02/03 09:37:57;;;;;;;8.05;3.10;;;1.40;93.30;;;;;;5060097;28;20030;-84
2024/02/03 09:40:23;;;;;;;6.78;3.13;;;1.70;93.10;;;;;;5073171;28;20029;-85
2024/02/03 09:42:49;;;;;;;6.28;3.50;;;2.00;92.50;;;;;;5069100;28;20017;-84
2024/02/03 09:45:15;;;;;;;5.13;2.40;;;2.20;92.20;;;;;;5062958;28;20050;-84
2024/02/03 09:47:42;;;;;;;7.03;2.80;;;2.40;91.90;;;;;;5073352;28;20035;-83
2024/02/03 09:50:09;;;;;;;4.20;2.40;;;2.50;91.60;;;;;;5062567;28;20024;-84
2024/02/03 09:52:37;;;;;;;4.97;2.80;;;2.60;91.00;;;;;;5063079;28;20482;-83
2024/02/03 09:55:03;;;;;;;;;;;2.40;90.70;;;;;;5067608;28;20127;-82
2024/02/03 09:57:29;;;;;;;5.60;3.03;;;2.20;91.00;;;;;;5065169;28;20000;-84
2024/02/03 09:59:57;;;;;;;5.97;2.63;;;2.10;90.50;;;;;;5073012;28;20021;-83
2024/02/03 10:02:23;;;;;;;9.57;3.53;;;2.00;90.60;;;;;;5072229;28;20034;-84
2024/02/03 10:04:49;;;;;;;3.90;2.33;;;1.80;90.60;;;;;;5072461;28;20470;-82
2024/02/03 10:07:19;;;;;;;5.38;3.30;;;1.70;90.50;;;;;;5072378;28;20107;-85
2024/02/03 10:09:45;;;;;;;4.47;2.55;;;1.60;90.70;;;;;;5064886;28;20104;-81
2024/02/03 10:12:19;;;;;;;3.33;2.33;;;1.80;90.90;;;;;;5058305;28;20072;-81
2024/02/03 10:14:45;;;;;;;2.95;2.58;;;2.10;90.70;;;;;;5061282;28;20432;-81
2024/02/03 10:17:11;;;;;;;7.25;3.60;;;2.20;90.30;;;;;;5063422;28;20028;-81
2024/02/03 10:19:36;;;;;;;8.35;4.07;;;2.50;90.20;;;;;;5079875;28;20104;-86
2024/02/03 10:22:02;;;;;;;6.30;2.80;;;2.90;90.20;;;;;;5079192;28;20020;-85
2024/02/03 10:24:28;;;;;;;6.47;3.88;;;3.70;89.40;;;;;;5066326;28;20044;-85
2024/02/03 10:27:12;;;;;;;6.88;3.47;;;4.30;87.40;;;;;;5066375;28;20088;-86
2024/02/03 10:29:38;;;;;;;7.53;3.95;;;4.70;84.90;;;;;;5074904;28;20554;-86
2024/02/03 10:32:04;;;;;;;6.40;2.72;;;5.00;83.30;;;;;;5081275;28;20020;-86
2024/02/03 10:34:34;;;;;;;7.75;3.20;;;5.20;82.40;;;;;;5075066;28;20044;-85
2024/02/03 10:37:00;;;;;;;6.80;2.95;;;5.20;79.80;;;;;;5068668;28;20021;-85
2024/02/03 10:39:26;;;;;;;7.63;3.08;;;5.10;80.00;;;;;;5070505;28;20024;-85
2024/02/03 10:41:54;;;;;;;6.13;3.22;;;4.90;79.30;;;;;;5075269;28;20078;-85
2024/02/03 10:44:24;;;;;;;5.97;3.28;;;4.50;79.00;;;;;;5076144;28;20477;-85
2024/02/03 10:46:57;;;;;;;7.50;4.00;;;3.80;79.70;;;;;;5075256;28;20584;-87
2024/02/03 10:49:32;;;;;;;7.57;2.92;;;3.30;81.10;;;;;;5078792;28;20493;-85
2024/02/03 10:52:04;;;;;;;10.10;3.90;;;2.90;82.60;;;;;;5095560;28;20084;-84
2024/02/03 10:54:32;;;;;;;5.70;3.28;;;2.80;82.80;;;;;;5075944;28;20115;-80
2024/02/03 10:57:03;;;;;;;11.27;3.33;;;2.60;83.20;;;;;;5068873;28;20048;-81
2024/02/03 10:59:29;;;;;;;7.65;3.05;;;2.50;83.90;;;;;;5074983;28;20052;-82
2024/02/03 11:01:55;;;;;;;9.23;3.33;;;2.40;84.30;;;;;;5060665;28;20025;-81
2024/02/03 11:04:21;;;;;;;8.60;4.90;;;2.20;84.70;;;;;;5065870;28;20023;-82
2024/02/03 11:06:47;;;;;;;5.65;3.42;;;2.00;85.30;;;;;;5072948;28;20077;-80
2024/02/03 11:09:20;;;;;;;6.95;3.08;;;2.00;85.70;;;;;;5068106;28;20127;-83
2024/02/03 11:11:52;;;;;;;6.90;3.10;;;2.00;86.20;;;;;;5081605;28;20535;-79
2024/02/03 11:14:22;;;;;;;8.40;4.00;;;2.00;86.20;;;;;;5071416;28;20039;-80
2024/02/03 11:17:08;;;;;;;8.82;3.55;;;2.00;86.70;;;;;;5068761;28;20396;-79
2024/02/03 11:19:36;;;;;;;5.90;3.08;;;2.00;87.10;;;;;;5077604;28;20067;-80
2024/02/03 11:22:03;;;;;;;9.23;4.47;;;1.90;87.20;;;;;;5092633;28;20051;-79
2024/02/03 11:24:30;;;;;;;8.00;5.60;;;2.00;87.50;;;;;;5077729;28;20130;-81
2024/02/03 11:27:07;;;;;;;8.32;3.63;;;1.90;87.60;;;;;;5073158;28;20066;-79
2024/02/03 11:29:33;;;;;;;7.65;3.65;;;2.00;87.70;;;;;;5072873;28;20500;-81
2024/02/03 11:32:07;;;;;;;5.43;2.88;;;2.00;87.80;;;;;;5073450;28;20107;-79
2024/02/03 11:34:35;;;;;;;9.68;4.28;;;1.90;87.60;;;;;;5072552;28;20094;-78
2024/02/03 11:37:01;;;;;;;8.52;3.65;;;1.70;88.10;;;;;;5073356;28;20437;-78
2024/02/03 11:39:35;;;;;;;5.93;2.83;;;1.60;88.50;;;;;;5073314;28;20025;-79
2024/02/03 11:42:05;;;;;;;9.45;3.00;;;1.30;88.70;;;;;;5073470;28;20257;-78
2024/02/03 11:44:59;;;;;;;10.35;4.85;;;1.10;89.70;;;;;;5073273;28;20028;-81
2024/02/03 11:47:25;;;;;;;5.93;3.03;;;1.00;90.10;;;;;;5070492;28;20470;-80
2024/02/03 11:49:52;;;;;;;10.85;3.97;;;1.00;90.20;;;;;;5073642;28;20035;-80
2024/02/03 11:52:18;;;;;;;6.60;3.00;;;1.10;90.20;;;;;;5074701;28;20028;-81
2024/02/03 11:54:44;;;;;;;9.48;4.25;;;1.00;90.10;;;;;;5073992;28;20036;-79
2024/02/03 11:57:10;;;;;;;9.15;4.38;;;0.90;90.40;;;;;;5078114;28;20024;-84
2024/02/03 11:59:36;;;;;;;8.20;3.35;;;0.90;90.40;;;;;;5074164;28;20056;-81
2024/02/03 12:02:03;;;;;;;7.40;3.00;;;0.90;90.60;;;;;;5075106;28;20035;-80
2024/02/03 12:04:29;;;;;;;11.57;4.95;;;0.70;90.60;;;;;;5072442;28;20025;-81
2024/02/03 12:06:56;;;;;;;5.50;3.67;;;0.50;91.00;;;;;;5072079;28;20027;-80
2024/02/03 12:09:22;;;;;;;6.85;2.45;;;0.60;91.20;;;;;;5072972;28;20417;-78
2024/02/03 12:11:49;;;;;;;4.63;2.58;;;0.50;91.20;;;;;;5073128;28;20017;-79
2024/02/03 12:14:19;;;;;;;6.32;2.55;;;0.40;91.30;;;;;;5073501;28;20473;-81
2024/02/03 12:16:49;;;;;;;4.38;2.28;;;0.30;91.50;;;;;;5073194;28;20021;-84
2024/02/03 12:19:15;;;;;;;4.88;2.45;;;0.20;91.60;;;;;;5065342;28;20060;-85
2024/02/03 12:21:41;;;;;;;4.63;2.25;;;0.30;92.00;;;;;;5069015;28;20108;-83
2024/02/03 12:24:08;;;;;;;13.65;5.40;;;0.30;91.80;;;;;;5074258;28;20059;-84
2024/02/03 12:26:37;;;;;;;10.30;3.43;;;0.30;92.20;;;;;;5074458;28;20077;-83
2024/02/03 12:29:03;;;;;;;7.07;3.28;;;0.40;91.90;;;;;;5073946;28;20021;-81
2024/02/03 12:31:29;;;;;;;6.72;3.60;;;0.40;91.80;;;;;;5073365;28;20024;-80
2024/02/03 12:33:58;;;;;;;8.07;3.25;;;0.30;91.90;;;;;;5073622;28;20556;-81
2024/02/03 12:36:25;;;;;;;6.55;3.38;;;0.30;92.00;;;;;;5062649;28;20028;-82
2024/02/03 12:38:52;;;;;;;8.90;3.08;;;0.20;92.20;;;;;;5079665;28;20020;-81
2024/02/03 12:41:18;;;;;;;7.68;4.15;;;0.10;92.30;;;;;;5073475;28;20516;-83
2024/02/03 12:43:44;;;;;;;7.47;2.97;;;0.10;92.40;;;;;;5073284;28;20025;-80
2024/02/03 12:46:10;;;;;;;8.52;4.53;;;0.10;92.40;;;;;;5084876;28;20029;-81